Terminal Aerodrome Forecast
Issued by NWS

Home | Current Version | Previous Version | Graphics & Text | Print | Product List | Glossary On
Versions: 1 2 3 4 5 6 7 8 9 10 11 12 13
000
FTUS43 KBIS 241734
TAFJMS
TAF
KJMS 241734Z 2418/2518 06012KT P6SM SCT050 OVC250
     FM242100 07012KT P6SM SCT035 BKN050 OVC100
     FM250000 08010KT P6SM VCSH SCT025 OVC035
     FM250300 06008KT 5SM -SHRA BR SCT007 SCT015 OVC025
     FM250800 02007KT 3SM -RA BR BKN007 OVC015=

USA.gov is the U.S. government's official web portal to all federal, state and local government web resources and services.